sensor_id;sensor_type;location;lat;lon;timestamp;temperature;humidity
15947;DHT22;8072;52.554;7.966;2024-02-23T00:02:05;6.40;99.90
15947;DHT22;8072;52.554;7.966;2024-02-23T00:04:30;6.30;99.90
15947;DHT22;8072;52.554;7.966;2024-02-23T00:06:56;6.20;99.90
15947;DHT22;8072;52.554;7.966;2024-02-23T00:09:23;6.20;99.90
15947;DHT22;8072;52.554;7.966;2024-02-23T00:11:50;6.20;99.90
15947;DHT22;8072;52.554;7.966;2024-02-23T00:14:16;6.20;99.90
15947;DHT22;8072;52.554;7.966;2024-02-23T00:16:47;6.20;99.90
15947;DHT22;8072;52.554;7.966;2024-02-23T00:19:13;6.20;99.90
15947;DHT22;8072;52.554;7.966;2024-02-23T00:21:39;6.20;99.90
15947;DHT22;8072;52.554;7.966;2024-02-23T00:24:08;6.20;99.90
15947;DHT22;8072;52.554;7.966;2024-02-23T00:26:33;6.10;99.90
15947;DHT22;8072;52.554;7.966;2024-02-23T00:28:59;6.00;99.90
15947;DHT22;8072;52.554;7.966;2024-02-23T00:31:25;6.10;99.90
15947;DHT22;8072;52.554;7.966;2024-02-23T00:33:52;6.00;99.90
15947;DHT22;8072;52.554;7.966;2024-02-23T00:36:18;6.00;99.90
15947;DHT22;8072;52.554;7.966;2024-02-23T00:38:48;6.00;99.90
15947;DHT22;8072;52.554;7.966;2024-02-23T00:41:14;6.00;99.90
15947;DHT22;8072;52.554;7.966;2024-02-23T00:43:41;6.00;99.90
15947;DHT22;8072;52.554;7.966;2024-02-23T00:46:08;6.00;99.90
15947;DHT22;8072;52.554;7.966;2024-02-23T00:48:34;5.80;99.90
15947;DHT22;8072;52.554;7.966;2024-02-23T00:51:03;5.80;99.90
15947;DHT22;8072;52.554;7.966;2024-02-23T00:53:31;5.80;99.90
15947;DHT22;8072;52.554;7.966;2024-02-23T00:55:57;5.70;99.90
15947;DHT22;8072;52.554;7.966;2024-02-23T00:58:23;5.60;99.90
15947;DHT22;8072;52.554;7.966;2024-02-23T01:00:48;5.50;99.90
15947;DHT22;8072;52.554;7.966;2024-02-23T01:03:14;5.40;99.90
15947;DHT22;8072;52.554;7.966;2024-02-23T01:05:40;5.40;99.90
15947;DHT22;8072;52.554;7.966;2024-02-23T01:08:08;5.40;99.90
15947;DHT22;8072;52.554;7.966;2024-02-23T01:10:33;5.30;99.90
15947;DHT22;8072;52.554;7.966;2024-02-23T01:12:59;5.30;99.90
15947;DHT22;8072;52.554;7.966;2024-02-23T01:15:25;5.30;99.90
15947;DHT22;8072;52.554;7.966;2024-02-23T01:17:51;5.20;99.90
15947;DHT22;8072;52.554;7.966;2024-02-23T01:20:16;5.20;99.90
15947;DHT22;8072;52.554;7.966;2024-02-23T01:22:43;5.20;99.90
15947;DHT22;8072;52.554;7.966;2024-02-23T01:25:09;5.10;99.90
15947;DHT22;8072;52.554;7.966;2024-02-23T01:27:35;5.10;99.90
15947;DHT22;8072;52.554;7.966;2024-02-23T01:30:00;5.10;99.90
15947;DHT22;8072;52.554;7.966;2024-02-23T01:32:26;5.00;99.90
15947;DHT22;8072;52.554;7.966;2024-02-23T01:34:52;5.00;99.90
15947;DHT22;8072;52.554;7.966;2024-02-23T01:37:18;5.00;99.90
15947;DHT22;8072;52.554;7.966;2024-02-23T01:39:43;5.00;99.90
15947;DHT22;8072;52.554;7.966;2024-02-23T01:42:10;4.90;99.90
15947;DHT22;8072;52.554;7.966;2024-02-23T01:44:36;4.90;99.90
15947;DHT22;8072;52.554;7.966;2024-02-23T01:47:02;4.90;99.90
15947;DHT22;8072;52.554;7.966;2024-02-23T01:49:28;4.80;99.90
15947;DHT22;8072;52.554;7.966;2024-02-23T01:52:03;4.80;99.90
15947;DHT22;8072;52.554;7.966;2024-02-23T01:54:30;4.80;99.90
15947;DHT22;8072;52.554;7.966;2024-02-23T01:56:58;4.70;99.90
15947;DHT22;8072;52.554;7.966;2024-02-23T01:59:25;4.70;99.90
15947;DHT22;8072;52.554;7.966;2024-02-23T02:01:52;4.70;99.90
15947;DHT22;8072;52.554;7.966;2024-02-23T02:04:18;4.70;99.90
15947;DHT22;8072;52.554;7.966;2024-02-23T02:06:46;4.70;99.90
15947;DHT22;8072;52.554;7.966;2024-02-23T02:09:12;4.70;99.90
15947;DHT22;8072;52.554;7.966;2024-02-23T02:11:48;4.70;99.90
15947;DHT22;8072;52.554;7.966;2024-02-23T02:14:14;4.70;99.90
15947;DHT22;8072;52.554;7.966;2024-02-23T02:16:40;4.70;99.90
15947;DHT22;8072;52.554;7.966;2024-02-23T02:19:06;4.80;99.90
15947;DHT22;8072;52.554;7.966;2024-02-23T02:21:33;4.80;99.90
15947;DHT22;8072;52.554;7.966;2024-02-23T02:23:59;4.80;99.90
15947;DHT22;8072;52.554;7.966;2024-02-23T02:26:25;4.70;99.90
15947;DHT22;8072;52.554;7.966;2024-02-23T02:28:51;4.70;99.90
15947;DHT22;8072;52.554;7.966;2024-02-23T02:31:19;4.80;99.90
15947;DHT22;8072;52.554;7.966;2024-02-23T02:33:45;4.80;99.90
15947;DHT22;8072;52.554;7.966;2024-02-23T02:36:11;4.80;99.90
15947;DHT22;8072;52.554;7.966;2024-02-23T02:38:38;4.80;99.90
15947;DHT22;8072;52.554;7.966;2024-02-23T02:41:04;4.80;99.90
15947;DHT22;8072;52.554;7.966;2024-02-23T02:43:31;4.80;99.90
15947;DHT22;8072;52.554;7.966;2024-02-23T02:45:56;4.80;99.90
15947;DHT22;8072;52.554;7.966;2024-02-23T02:48:23;4.80;99.90
15947;DHT22;8072;52.554;7.966;2024-02-23T02:50:49;4.90;99.90
15947;DHT22;8072;52.554;7.966;2024-02-23T02:53:15;4.90;99.90
15947;DHT22;8072;52.554;7.966;2024-02-23T02:55:42;4.90;99.90
15947;DHT22;8072;52.554;7.966;2024-02-23T02:58:08;4.90;99.90
15947;DHT22;8072;52.554;7.966;2024-02-23T03:00:34;4.90;99.90
15947;DHT22;8072;52.554;7.966;2024-02-23T03:03:00;4.90;99.90
15947;DHT22;8072;52.554;7.966;2024-02-23T03:05:26;4.90;99.90
15947;DHT22;8072;52.554;7.966;2024-02-23T03:07:51;4.90;99.90
15947;DHT22;8072;52.554;7.966;2024-02-23T03:10:17;4.90;99.90
15947;DHT22;8072;52.554;7.966;2024-02-23T03:12:43;4.70;99.90
15947;DHT22;8072;52.554;7.966;2024-02-23T03:15:09;4.50;99.90
15947;DHT22;8072;52.554;7.966;2024-02-23T03:17:38;4.30;99.90
15947;DHT22;8072;52.554;7.966;2024-02-23T03:20:04;4.30;99.90
15947;DHT22;8072;52.554;7.966;2024-02-23T03:22:37;4.20;99.90
15947;DHT22;8072;52.554;7.966;2024-02-23T03:25:04;4.20;99.90
15947;DHT22;8072;52.554;7.966;2024-02-23T03:27:35;4.20;99.90
15947;DHT22;8072;52.554;7.966;2024-02-23T03:30:04;4.20;99.90
15947;DHT22;8072;52.554;7.966;2024-02-23T03:32:31;4.20;99.90
15947;DHT22;8072;52.554;7.966;2024-02-23T03:35:03;4.20;99.90
15947;DHT22;8072;52.554;7.966;2024-02-23T03:37:29;4.20;99.90
15947;DHT22;8072;52.554;7.966;2024-02-23T03:39:55;4.20;99.90
15947;DHT22;8072;52.554;7.966;2024-02-23T03:42:21;4.30;99.90
15947;DHT22;8072;52.554;7.966;2024-02-23T03:44:46;4.30;99.90
15947;DHT22;8072;52.554;7.966;2024-02-23T03:47:13;4.30;99.90
15947;DHT22;8072;52.554;7.966;2024-02-23T03:49:39;4.30;99.90
15947;DHT22;8072;52.554;7.966;2024-02-23T03:52:06;4.40;99.90
15947;DHT22;8072;52.554;7.966;2024-02-23T03:54:33;4.40;99.90
15947;DHT22;8072;52.554;7.966;2024-02-23T03:56:59;4.40;99.90
15947;DHT22;8072;52.554;7.966;2024-02-23T03:59:28;4.50;99.90
15947;DHT22;8072;52.554;7.966;2024-02-23T04:01:54;4.50;99.90
15947;DHT22;8072;52.554;7.966;2024-02-23T04:04:20;4.60;99.90
15947;DHT22;8072;52.554;7.966;2024-02-23T04:06:46;4.60;99.90
15947;DHT22;8072;52.554;7.966;2024-02-23T04:09:12;4.70;99.90
15947;DHT22;8072;52.554;7.966;2024-02-23T04:11:40;4.70;99.90
15947;DHT22;8072;52.554;7.966;2024-02-23T04:14:05;4.80;99.90
15947;DHT22;8072;52.554;7.966;2024-02-23T04:16:31;4.80;99.90
15947;DHT22;8072;52.554;7.966;2024-02-23T04:18:57;4.90;99.90
15947;DHT22;8072;52.554;7.966;2024-02-23T04:21:25;4.90;99.90
15947;DHT22;8072;52.554;7.966;2024-02-23T04:23:52;5.00;99.90
15947;DHT22;8072;52.554;7.966;2024-02-23T04:26:18;5.00;99.90
15947;DHT22;8072;52.554;7.966;2024-02-23T04:28:44;5.10;99.90
15947;DHT22;8072;52.554;7.966;2024-02-23T04:31:10;5.20;99.90
15947;DHT22;8072;52.554;7.966;2024-02-23T04:33:36;5.20;99.90
15947;DHT22;8072;52.554;7.966;2024-02-23T04:36:03;5.20;99.90
15947;DHT22;8072;52.554;7.966;2024-02-23T04:38:32;5.20;99.90
15947;DHT22;8072;52.554;7.966;2024-02-23T04:40:58;5.30;99.90
15947;DHT22;8072;52.554;7.966;2024-02-23T04:43:24;5.30;99.90
15947;DHT22;8072;52.554;7.966;2024-02-23T04:45:52;5.40;99.90
15947;DHT22;8072;52.554;7.966;2024-02-23T04:48:18;5.30;99.90
15947;DHT22;8072;52.554;7.966;2024-02-23T04:50:43;5.30;99.90
15947;DHT22;8072;52.554;7.966;2024-02-23T04:53:09;5.40;99.90
15947;DHT22;8072;52.554;7.966;2024-02-23T04:55:35;5.40;99.90
15947;DHT22;8072;52.554;7.966;2024-02-23T04:58:01;5.40;99.90
15947;DHT22;8072;52.554;7.966;2024-02-23T05:00:28;5.40;99.90
15947;DHT22;8072;52.554;7.966;2024-02-23T05:03:01;5.40;99.90
15947;DHT22;8072;52.554;7.966;2024-02-23T05:05:30;5.40;99.90
15947;DHT22;8072;52.554;7.966;2024-02-23T05:07:57;5.40;99.90
15947;DHT22;8072;52.554;7.966;2024-02-23T05:10:22;5.40;99.90
15947;DHT22;8072;52.554;7.966;2024-02-23T05:12:49;5.40;99.90
15947;DHT22;8072;52.554;7.966;2024-02-23T05:15:14;5.30;99.90
15947;DHT22;8072;52.554;7.966;2024-02-23T05:17:40;5.30;99.90
15947;DHT22;8072;52.554;7.966;2024-02-23T05:20:07;5.30;99.90
15947;DHT22;8072;52.554;7.966;2024-02-23T05:22:33;5.30;99.90
15947;DHT22;8072;52.554;7.966;2024-02-23T05:24:59;5.30;99.90
15947;DHT22;8072;52.554;7.966;2024-02-23T05:27:25;5.30;99.90
15947;DHT22;8072;52.554;7.966;2024-02-23T05:29:52;5.30;99.90
15947;DHT22;8072;52.554;7.966;2024-02-23T05:32:18;5.30;99.90
15947;DHT22;8072;52.554;7.966;2024-02-23T05:34:44;5.40;99.90
15947;DHT22;8072;52.554;7.966;2024-02-23T05:37:10;5.40;99.90
15947;DHT22;8072;52.554;7.966;2024-02-23T05:39:36;5.40;99.90
15947;DHT22;8072;52.554;7.966;2024-02-23T05:42:04;5.40;99.90
15947;DHT22;8072;52.554;7.966;2024-02-23T05:44:30;5.30;99.90
15947;DHT22;8072;52.554;7.966;2024-02-23T05:46:55;5.30;99.90
15947;DHT22;8072;52.554;7.966;2024-02-23T05:49:21;5.30;99.90
15947;DHT22;8072;52.554;7.966;2024-02-23T05:51:47;5.30;99.90
15947;DHT22;8072;52.554;7.966;2024-02-23T05:54:13;5.40;99.90
15947;DHT22;8072;52.554;7.966;2024-02-23T05:56:39;5.40;99.90
15947;DHT22;8072;52.554;7.966;2024-02-23T05:59:04;5.30;99.90
15947;DHT22;8072;52.554;7.966;2024-02-23T06:01:31;5.40;99.90
15947;DHT22;8072;52.554;7.966;2024-02-23T06:03:57;5.40;99.90
15947;DHT22;8072;52.554;7.966;2024-02-23T06:06:23;5.40;99.90
15947;DHT22;8072;52.554;7.966;2024-02-23T06:08:49;5.40;99.90
15947;DHT22;8072;52.554;7.966;2024-02-23T06:11:15;5.40;99.90
15947;DHT22;8072;52.554;7.966;2024-02-23T06:13:41;5.40;99.90
15947;DHT22;8072;52.554;7.966;2024-02-23T06:16:10;5.40;99.90
15947;DHT22;8072;52.554;7.966;2024-02-23T06:18:37;5.40;99.90
15947;DHT22;8072;52.554;7.966;2024-02-23T06:21:16;5.40;99.90
15947;DHT22;8072;52.554;7.966;2024-02-23T06:23:43;5.50;99.90
15947;DHT22;8072;52.554;7.966;2024-02-23T06:26:10;5.40;99.90
15947;DHT22;8072;52.554;7.966;2024-02-23T06:28:36;5.40;99.90
15947;DHT22;8072;52.554;7.966;2024-02-23T06:31:05;5.40;99.90
15947;DHT22;8072;52.554;7.966;2024-02-23T06:33:31;5.40;99.90
15947;DHT22;8072;52.554;7.966;2024-02-23T06:35:57;5.40;99.90
15947;DHT22;8072;52.554;7.966;2024-02-23T06:38:23;5.40;99.90
15947;DHT22;8072;52.554;7.966;2024-02-23T06:40:49;5.40;99.90
15947;DHT22;8072;52.554;7.966;2024-02-23T06:43:14;5.40;99.90
15947;DHT22;8072;52.554;7.966;2024-02-23T06:45:41;5.40;99.90
15947;DHT22;8072;52.554;7.966;2024-02-23T06:48:08;5.40;99.90
15947;DHT22;8072;52.554;7.966;2024-02-23T06:50:35;5.40;99.90
15947;DHT22;8072;52.554;7.966;2024-02-23T06:53:01;5.40;99.90
15947;DHT22;8072;52.554;7.966;2024-02-23T06:55:28;5.40;99.90
15947;DHT22;8072;52.554;7.966;2024-02-23T06:57:54;5.40;99.90
15947;DHT22;8072;52.554;7.966;2024-02-23T07:00:20;5.50;99.90
15947;DHT22;8072;52.554;7.966;2024-02-23T07:02:47;5.50;99.90
15947;DHT22;8072;52.554;7.966;2024-02-23T07:05:13;5.50;99.90
15947;DHT22;8072;52.554;7.966;2024-02-23T07:07:40;5.50;99.90
15947;DHT22;8072;52.554;7.966;2024-02-23T07:10:07;5.50;99.90
15947;DHT22;8072;52.554;7.966;2024-02-23T07:12:32;5.60;99.90
15947;DHT22;8072;52.554;7.966;2024-02-23T07:14:58;5.60;99.90
15947;DHT22;8072;52.554;7.966;2024-02-23T07:17:24;5.60;99.90
15947;DHT22;8072;52.554;7.966;2024-02-23T07:19:50;5.60;99.90
15947;DHT22;8072;52.554;7.966;2024-02-23T07:22:17;5.60;99.90
15947;DHT22;8072;52.554;7.966;2024-02-23T07:24:46;5.60;99.90
15947;DHT22;8072;52.554;7.966;2024-02-23T07:27:12;5.60;99.90
15947;DHT22;8072;52.554;7.966;2024-02-23T07:29:37;5.60;99.90
15947;DHT22;8072;52.554;7.966;2024-02-23T07:32:03;5.60;99.90
15947;DHT22;8072;52.554;7.966;2024-02-23T07:34:31;5.60;99.90
15947;DHT22;8072;52.554;7.966;2024-02-23T07:36:57;5.60;99.90
15947;DHT22;8072;52.554;7.966;2024-02-23T07:39:22;5.70;99.90
15947;DHT22;8072;52.554;7.966;2024-02-23T07:41:48;5.70;99.90
15947;DHT22;8072;52.554;7.966;2024-02-23T07:44:14;5.70;99.90
15947;DHT22;8072;52.554;7.966;2024-02-23T07:46:40;5.70;99.90
15947;DHT22;8072;52.554;7.966;2024-02-23T07:49:07;5.70;99.90
15947;DHT22;8072;52.554;7.966;2024-02-23T07:51:33;5.80;99.90
15947;DHT22;8072;52.554;7.966;2024-02-23T07:53:58;5.80;99.90
15947;DHT22;8072;52.554;7.966;2024-02-23T07:56:24;5.90;99.90
15947;DHT22;8072;52.554;7.966;2024-02-23T07:58:50;5.90;99.90
15947;DHT22;8072;52.554;7.966;2024-02-23T08:01:16;5.90;99.90
15947;DHT22;8072;52.554;7.966;2024-02-23T08:03:41;6.00;99.90
15947;DHT22;8072;52.554;7.966;2024-02-23T08:06:07;6.00;99.90
15947;DHT22;8072;52.554;7.966;2024-02-23T08:08:33;6.10;99.90
15947;DHT22;8072;52.554;7.966;2024-02-23T08:11:04;6.10;99.90
15947;DHT22;8072;52.554;7.966;2024-02-23T08:13:30;6.10;99.90
15947;DHT22;8072;52.554;7.966;2024-02-23T08:15:57;6.10;99.90
15947;DHT22;8072;52.554;7.966;2024-02-23T08:18:23;6.10;99.90
15947;DHT22;8072;52.554;7.966;2024-02-23T08:20:49;6.20;99.90
15947;DHT22;8072;52.554;7.966;2024-02-23T08:23:14;6.20;99.90
15947;DHT22;8072;52.554;7.966;2024-02-23T08:25:40;6.30;99.90
15947;DHT22;8072;52.554;7.966;2024-02-23T08:28:06;6.30;99.90
15947;DHT22;8072;52.554;7.966;2024-02-23T08:30:32;6.30;99.90
15947;DHT22;8072;52.554;7.966;2024-02-23T08:32:59;6.30;99.90
15947;DHT22;8072;52.554;7.966;2024-02-23T08:35:25;6.30;99.90
15947;DHT22;8072;52.554;7.966;2024-02-23T08:37:51;6.30;99.90
15947;DHT22;8072;52.554;7.966;2024-02-23T08:40:17;6.30;99.90
15947;DHT22;8072;52.554;7.966;2024-02-23T08:42:42;6.40;99.90
15947;DHT22;8072;52.554;7.966;2024-02-23T08:45:08;6.50;99.90
15947;DHT22;8072;52.554;7.966;2024-02-23T08:47:38;6.50;99.90
15947;DHT22;8072;52.554;7.966;2024-02-23T08:50:04;6.50;99.90
15947;DHT22;8072;52.554;7.966;2024-02-23T08:52:31;6.50;99.90
15947;DHT22;8072;52.554;7.966;2024-02-23T08:54:57;6.50;99.90
15947;DHT22;8072;52.554;7.966;2024-02-23T08:57:22;6.50;99.90
15947;DHT22;8072;52.554;7.966;2024-02-23T08:59:51;6.60;99.90
15947;DHT22;8072;52.554;7.966;2024-02-23T09:02:17;6.60;99.90
15947;DHT22;8072;52.554;7.966;2024-02-23T09:04:44;6.60;99.90
15947;DHT22;8072;52.554;7.966;2024-02-23T09:07:11;6.60;99.90
15947;DHT22;8072;52.554;7.966;2024-02-23T09:09:37;6.60;99.90
15947;DHT22;8072;52.554;7.966;2024-02-23T09:12:03;6.70;99.90
15947;DHT22;8072;52.554;7.966;2024-02-23T09:14:29;6.80;99.90
15947;DHT22;8072;52.554;7.966;2024-02-23T09:16:55;6.80;99.90
15947;DHT22;8072;52.554;7.966;2024-02-23T09:19:21;6.90;99.90
15947;DHT22;8072;52.554;7.966;2024-02-23T09:21:47;6.80;99.90
15947;DHT22;8072;52.554;7.966;2024-02-23T09:24:12;6.80;99.90
15947;DHT22;8072;52.554;7.966;2024-02-23T09:26:38;6.80;99.90
15947;DHT22;8072;52.554;7.966;2024-02-23T09:29:05;6.90;99.90
15947;DHT22;8072;52.554;7.966;2024-02-23T09:31:30;7.10;99.90
15947;DHT22;8072;52.554;7.966;2024-02-23T09:33:58;7.10;99.90
15947;DHT22;8072;52.554;7.966;2024-02-23T09:36:24;7.10;99.90
15947;DHT22;8072;52.554;7.966;2024-02-23T09:38:50;7.10;99.90
15947;DHT22;8072;52.554;7.966;2024-02-23T09:41:21;7.10;99.90
15947;DHT22;8072;52.554;7.966;2024-02-23T09:43:48;7.10;99.90
15947;DHT22;8072;52.554;7.966;2024-02-23T09:46:15;7.10;99.90
15947;DHT22;8072;52.554;7.966;2024-02-23T09:48:44;7.10;99.90
15947;DHT22;8072;52.554;7.966;2024-02-23T09:51:11;7.10;99.90
15947;DHT22;8072;52.554;7.966;2024-02-23T09:53:38;7.10;99.90
15947;DHT22;8072;52.554;7.966;2024-02-23T09:56:05;7.20;99.90
15947;DHT22;8072;52.554;7.966;2024-02-23T09:58:32;7.20;99.90
15947;DHT22;8072;52.554;7.966;2024-02-23T10:00:58;7.20;99.90
15947;DHT22;8072;52.554;7.966;2024-02-23T10:03:28;7.20;99.90
15947;DHT22;8072;52.554;7.966;2024-02-23T10:05:56;7.10;99.90
15947;DHT22;8072;52.554;7.966;2024-02-23T10:08:22;7.10;99.90
15947;DHT22;8072;52.554;7.966;2024-02-23T10:10:48;7.20;99.90
15947;DHT22;8072;52.554;7.966;2024-02-23T10:13:19;7.20;99.90
15947;DHT22;8072;52.554;7.966;2024-02-23T10:15:53;7.30;99.90
15947;DHT22;8072;52.554;7.966;2024-02-23T10:18:20;7.30;99.90
15947;DHT22;8072;52.554;7.966;2024-02-23T10:20:47;7.40;99.90
15947;DHT22;8072;52.554;7.966;2024-02-23T10:23:13;7.40;99.90
15947;DHT22;8072;52.554;7.966;2024-02-23T10:25:38;7.40;99.90
15947;DHT22;8072;52.554;7.966;2024-02-23T10:28:06;7.40;99.90
15947;DHT22;8072;52.554;7.966;2024-02-23T10:30:32;7.40;99.90
15947;DHT22;8072;52.554;7.966;2024-02-23T10:32:58;7.50;99.90
15947;DHT22;8072;52.554;7.966;2024-02-23T10:35:25;7.50;99.90
15947;DHT22;8072;52.554;7.966;2024-02-23T10:37:53;7.60;99.90
15947;DHT22;8072;52.554;7.966;2024-02-23T10:40:21;7.60;99.90
15947;DHT22;8072;52.554;7.966;2024-02-23T10:42:56;7.60;99.90
15947;DHT22;8072;52.554;7.966;2024-02-23T10:45:28;7.70;99.90
15947;DHT22;8072;52.554;7.966;2024-02-23T10:47:55;7.80;99.90
15947;DHT22;8072;52.554;7.966;2024-02-23T10:50:25;7.90;99.90
15947;DHT22;8072;52.554;7.966;2024-02-23T10:52:52;7.90;99.90
15947;DHT22;8072;52.554;7.966;2024-02-23T10:55:18;7.90;99.90
15947;DHT22;8072;52.554;7.966;2024-02-23T10:57:44;7.90;99.90
15947;DHT22;8072;52.554;7.966;2024-02-23T11:00:12;7.80;99.90
15947;DHT22;8072;52.554;7.966;2024-02-23T11:02:46;7.80;99.90
15947;DHT22;8072;52.554;7.966;2024-02-23T11:05:15;7.80;99.90
15947;DHT22;8072;52.554;7.966;2024-02-23T11:07:41;7.90;99.90
15947;DHT22;8072;52.554;7.966;2024-02-23T11:10:07;7.90;99.90
15947;DHT22;8072;52.554;7.966;2024-02-23T11:12:35;7.90;99.90
15947;DHT22;8072;52.554;7.966;2024-02-23T11:15:01;7.90;99.90
15947;DHT22;8072;52.554;7.966;2024-02-23T11:17:29;7.80;99.90
15947;DHT22;8072;52.554;7.966;2024-02-23T11:19:56;7.90;99.90
15947;DHT22;8072;52.554;7.966;2024-02-23T11:22:33;7.90;99.90
15947;DHT22;8072;52.554;7.966;2024-02-23T11:25:09;7.90;99.90
15947;DHT22;8072;52.554;7.966;2024-02-23T11:27:37;7.80;99.90
15947;DHT22;8072;52.554;7.966;2024-02-23T11:30:09;7.80;99.90
15947;DHT22;8072;52.554;7.966;2024-02-23T11:32:39;7.80;99.90
15947;DHT22;8072;52.554;7.966;2024-02-23T11:35:07;7.80;99.90
15947;DHT22;8072;52.554;7.966;2024-02-23T11:37:54;7.80;99.90
15947;DHT22;8072;52.554;7.966;2024-02-23T11:40:28;7.80;99.90
15947;DHT22;8072;52.554;7.966;2024-02-23T11:42:57;7.80;99.90
15947;DHT22;8072;52.554;7.966;2024-02-23T11:45:28;7.70;99.90
15947;DHT22;8072;52.554;7.966;2024-02-23T11:47:55;7.70;99.90
15947;DHT22;8072;52.554;7.966;2024-02-23T11:50:21;7.70;99.90
15947;DHT22;8072;52.554;7.966;2024-02-23T11:52:47;7.70;99.90
15947;DHT22;8072;52.554;7.966;2024-02-23T11:55:18;7.70;99.90
15947;DHT22;8072;52.554;7.966;2024-02-23T11:57:45;7.70;99.90
15947;DHT22;8072;52.554;7.966;2024-02-23T12:00:11;7.70;99.90
15947;DHT22;8072;52.554;7.966;2024-02-23T12:02:37;7.80;99.90
15947;DHT22;8072;52.554;7.966;2024-02-23T12:05:03;7.80;99.90
15947;DHT22;8072;52.554;7.966;2024-02-23T12:07:29;7.90;99.90
15947;DHT22;8072;52.554;7.966;2024-02-23T12:09:56;8.00;99.90
15947;DHT22;8072;52.554;7.966;2024-02-23T12:12:25;8.00;99.90
15947;DHT22;8072;52.554;7.966;2024-02-23T12:14:51;8.10;99.90
15947;DHT22;8072;52.554;7.966;2024-02-23T12:17:17;8.00;99.90
15947;DHT22;8072;52.554;7.966;2024-02-23T12:19:42;8.10;99.90
15947;DHT22;8072;52.554;7.966;2024-02-23T12:22:10;8.10;99.90
15947;DHT22;8072;52.554;7.966;2024-02-23T12:24:37;8.10;99.90
15947;DHT22;8072;52.554;7.966;2024-02-23T12:27:03;8.10;99.90
15947;DHT22;8072;52.554;7.966;2024-02-23T12:29:30;8.10;99.90
15947;DHT22;8072;52.554;7.966;2024-02-23T12:32:06;8.20;99.90
15947;DHT22;8072;52.554;7.966;2024-02-23T12:34:32;8.20;99.90
15947;DHT22;8072;52.554;7.966;2024-02-23T12:36:58;8.20;99.90
15947;DHT22;8072;52.554;7.966;2024-02-23T12:39:24;8.20;99.90
15947;DHT22;8072;52.554;7.966;2024-02-23T12:41:50;8.20;99.90
15947;DHT22;8072;52.554;7.966;2024-02-23T12:44:16;8.10;99.90
15947;DHT22;8072;52.554;7.966;2024-02-23T12:46:43;8.10;99.90
15947;DHT22;8072;52.554;7.966;2024-02-23T12:49:09;8.00;99.90
15947;DHT22;8072;52.554;7.966;2024-02-23T12:51:35;8.00;99.90
15947;DHT22;8072;52.554;7.966;2024-02-23T12:54:00;7.90;99.90
15947;DHT22;8072;52.554;7.966;2024-02-23T12:56:26;7.80;99.90
15947;DHT22;8072;52.554;7.966;2024-02-23T12:58:52;7.70;99.90
15947;DHT22;8072;52.554;7.966;2024-02-23T13:01:19;7.70;99.90
15947;DHT22;8072;52.554;7.966;2024-02-23T13:03:45;7.70;99.90
15947;DHT22;8072;52.554;7.966;2024-02-23T13:06:11;7.70;99.90
15947;DHT22;8072;52.554;7.966;2024-02-23T13:08:38;7.70;99.90
15947;DHT22;8072;52.554;7.966;2024-02-23T13:11:06;7.80;99.90
15947;DHT22;8072;52.554;7.966;2024-02-23T13:13:32;7.80;99.90
15947;DHT22;8072;52.554;7.966;2024-02-23T13:15:58;7.70;99.90
15947;DHT22;8072;52.554;7.966;2024-02-23T13:18:24;7.80;99.90
15947;DHT22;8072;52.554;7.966;2024-02-23T13:20:50;7.80;99.90
15947;DHT22;8072;52.554;7.966;2024-02-23T13:23:16;7.80;99.90
15947;DHT22;8072;52.554;7.966;2024-02-23T13:25:42;7.80;99.90
15947;DHT22;8072;52.554;7.966;2024-02-23T13:28:08;7.90;99.90
15947;DHT22;8072;52.554;7.966;2024-02-23T13:30:35;7.90;99.90
15947;DHT22;8072;52.554;7.966;2024-02-23T13:33:01;8.00;99.90
15947;DHT22;8072;52.554;7.966;2024-02-23T13:35:28;8.10;99.90
15947;DHT22;8072;52.554;7.966;2024-02-23T13:37:54;8.10;99.90
15947;DHT22;8072;52.554;7.966;2024-02-23T13:40:20;8.10;99.90
15947;DHT22;8072;52.554;7.966;2024-02-23T13:42:46;8.20;99.90
15947;DHT22;8072;52.554;7.966;2024-02-23T13:45:16;8.20;99.90
15947;DHT22;8072;52.554;7.966;2024-02-23T13:47:43;8.10;99.90
15947;DHT22;8072;52.554;7.966;2024-02-23T13:50:10;8.10;99.90
15947;DHT22;8072;52.554;7.966;2024-02-23T13:52:37;8.20;99.90
15947;DHT22;8072;52.554;7.966;2024-02-23T13:55:03;8.20;99.90
15947;DHT22;8072;52.554;7.966;2024-02-23T13:57:29;8.20;99.90
15947;DHT22;8072;52.554;7.966;2024-02-23T13:59:54;8.20;99.90
15947;DHT22;8072;52.554;7.966;2024-02-23T14:02:26;8.30;99.90
15947;DHT22;8072;52.554;7.966;2024-02-23T14:04:59;8.50;99.90
15947;DHT22;8072;52.554;7.966;2024-02-23T14:07:26;8.30;99.90
15947;DHT22;8072;52.554;7.966;2024-02-23T14:09:52;8.30;99.90
15947;DHT22;8072;52.554;7.966;2024-02-23T14:12:18;8.20;99.90
15947;DHT22;8072;52.554;7.966;2024-02-23T14:14:44;8.30;99.90
15947;DHT22;8072;52.554;7.966;2024-02-23T14:17:10;8.20;99.90
15947;DHT22;8072;52.554;7.966;2024-02-23T14:19:36;8.10;99.90
15947;DHT22;8072;52.554;7.966;2024-02-23T14:22:01;8.10;99.90
15947;DHT22;8072;52.554;7.966;2024-02-23T14:24:27;8.00;99.90
15947;DHT22;8072;52.554;7.966;2024-02-23T14:26:53;8.10;99.90
15947;DHT22;8072;52.554;7.966;2024-02-23T14:29:19;8.00;99.90
15947;DHT22;8072;52.554;7.966;2024-02-23T14:31:44;8.10;99.90
15947;DHT22;8072;52.554;7.966;2024-02-23T14:34:10;8.00;99.90
15947;DHT22;8072;52.554;7.966;2024-02-23T14:36:36;8.10;99.90
15947;DHT22;8072;52.554;7.966;2024-02-23T14:39:02;8.10;99.90
15947;DHT22;8072;52.554;7.966;2024-02-23T14:41:30;8.10;99.90
15947;DHT22;8072;52.554;7.966;2024-02-23T14:43:55;8.10;99.90
15947;DHT22;8072;52.554;7.966;2024-02-23T14:46:21;8.10;99.90
15947;DHT22;8072;52.554;7.966;2024-02-23T14:48:47;8.10;99.90
15947;DHT22;8072;52.554;7.966;2024-02-23T14:51:17;8.10;99.90
15947;DHT22;8072;52.554;7.966;2024-02-23T14:53:42;8.10;99.90
15947;DHT22;8072;52.554;7.966;2024-02-23T14:56:08;8.10;99.90
15947;DHT22;8072;52.554;7.966;2024-02-23T14:58:34;8.00;99.90
15947;DHT22;8072;52.554;7.966;2024-02-23T15:01:00;8.00;99.90
15947;DHT22;8072;52.554;7.966;2024-02-23T15:03:26;8.00;99.90
15947;DHT22;8072;52.554;7.966;2024-02-23T15:05:51;7.90;99.90
15947;DHT22;8072;52.554;7.966;2024-02-23T15:08:17;7.90;99.90
15947;DHT22;8072;52.554;7.966;2024-02-23T15:10:43;7.90;99.90
15947;DHT22;8072;52.554;7.966;2024-02-23T15:13:09;7.90;99.90
15947;DHT22;8072;52.554;7.966;2024-02-23T15:15:35;7.90;99.90
15947;DHT22;8072;52.554;7.966;2024-02-23T15:18:06;7.90;99.90
15947;DHT22;8072;52.554;7.966;2024-02-23T15:20:32;7.90;99.90
15947;DHT22;8072;52.554;7.966;2024-02-23T15:22:58;7.80;99.90
15947;DHT22;8072;52.554;7.966;2024-02-23T15:25:24;7.80;99.90
15947;DHT22;8072;52.554;7.966;2024-02-23T15:27:50;7.90;99.90
15947;DHT22;8072;52.554;7.966;2024-02-23T15:30:17;7.90;99.90
15947;DHT22;8072;52.554;7.966;2024-02-23T15:32:43;7.90;99.90
15947;DHT22;8072;52.554;7.966;2024-02-23T15:35:09;7.90;99.90
15947;DHT22;8072;52.554;7.966;2024-02-23T15:37:35;7.80;99.90
15947;DHT22;8072;52.554;7.966;2024-02-23T15:40:01;7.90;99.90
15947;DHT22;8072;52.554;7.966;2024-02-23T15:42:29;7.90;99.90
15947;DHT22;8072;52.554;7.966;2024-02-23T15:44:55;7.90;99.90
15947;DHT22;8072;52.554;7.966;2024-02-23T15:47:21;7.90;99.90
15947;DHT22;8072;52.554;7.966;2024-02-23T15:49:47;7.80;99.90
15947;DHT22;8072;52.554;7.966;2024-02-23T15:52:13;7.80;99.90
15947;DHT22;8072;52.554;7.966;2024-02-23T15:54:39;7.70;99.90
15947;DHT22;8072;52.554;7.966;2024-02-23T15:57:04;7.60;99.90
15947;DHT22;8072;52.554;7.966;2024-02-23T15:59:30;7.60;99.90